Time;durP1;ratioP1;P1;durP2;ratioP2;P2;SDS_P1;SDS_P2;PMS_P1;PMS_P2;Temp;Humidity;BMP_temperature;BMP_pressure;BME280_temperature;BME280_humidity;BME280_pressure;Samples;Min_cycle;Max_cycle;Signal;HPM_P1;HPM_P2
2023/01/13 00:01:19;;;;;;;;;0.00;0.00;;;;;-146.37;100.00;59337.28;5094879;28;9539;-80
2023/01/13 00:03:45;;;;;;;;;0.00;0.00;;;;;-146.37;100.00;59337.28;5096215;28;8763;-79
2023/01/13 00:06:18;;;;;;;;;0.00;0.00;;;;;-146.37;100.00;59337.28;5077497;28;8826;-79
2023/01/13 00:08:43;;;;;;;;;0.00;0.00;;;;;-146.37;100.00;59337.28;5095646;28;8751;-79
2023/01/13 00:11:09;;;;;;;;;1.00;0.00;;;;;-146.37;100.00;59337.28;5076649;28;8858;-79
2023/01/13 00:13:37;;;;;;;;;0.00;0.00;;;;;-146.37;100.00;59337.28;5076632;28;8790;-79
2023/01/13 00:16:10;;;;;;;;;0.00;0.00;;;;;-146.37;100.00;59337.28;5093335;28;26471;-78
2023/01/13 00:18:37;;;;;;;;;0.00;0.00;;;;;-146.37;100.00;59337.28;5065619;28;28446;-79
2023/01/13 00:21:10;;;;;;;;;0.00;0.00;;;;;-146.37;100.00;59337.28;5076050;28;8821;-79
2023/01/13 00:23:36;;;;;;;;;0.00;0.00;;;;;-146.37;100.00;59337.28;5075421;28;8801;-79
2023/01/13 00:26:09;;;;;;;;;0.00;0.00;;;;;-146.37;100.00;59337.28;5075490;28;8795;-80
2023/01/13 00:28:36;;;;;;;;;0.40;0.40;;;;;-146.37;100.00;59337.28;5093554;28;8755;-80
2023/01/13 00:31:10;;;;;;;;;0.00;0.00;;;;;-146.37;100.00;59337.28;5095957;28;8771;-80
2023/01/13 00:33:37;;;;;;;;;0.00;0.00;;;;;-146.37;100.00;59337.28;5095948;28;8790;-79
2023/01/13 00:36:04;;;;;;;;;0.00;0.00;;;;;-146.37;100.00;59337.28;5078916;28;8763;-80
2023/01/13 00:38:32;;;;;;;;;0.00;0.00;;;;;-146.37;100.00;59337.28;5097208;28;8845;-80
2023/01/13 00:41:05;;;;;;;;;0.00;0.00;;;;;-146.37;100.00;59337.28;5078334;28;8787;-80
2023/01/13 00:43:32;;;;;;;;;0.00;0.00;;;;;-146.37;100.00;59337.28;5078698;28;8793;-80
2023/01/13 00:45:58;;;;;;;;;0.00;0.00;;;;;-146.37;100.00;59337.28;5078547;28;8771;-80
2023/01/13 00:48:24;;;;;;;;;0.00;0.00;;;;;-146.37;100.00;59337.28;5096848;28;8755;-79
2023/01/13 00:51:09;;;;;;;;;0.00;0.00;;;;;-146.37;100.00;59337.28;5095462;28;9312;-79
2023/01/13 00:53:38;;;;;;;;;0.00;0.00;;;;;-146.37;100.00;59337.28;5103292;28;8747;-80
2023/01/13 00:56:21;;;;;;;;;0.00;0.00;;;;;-146.37;100.00;59337.28;5098821;28;8796;-80
2023/01/13 00:58:47;;;;;;;;;0.40;0.40;;;;;-146.37;100.00;59337.28;5079019;28;8775;-80
2023/01/13 01:01:16;;;;;;;;;0.00;0.00;;;;;-146.37;100.00;59337.28;5096607;28;8795;-80
2023/01/13 01:03:43;;;;;;;;;0.60;0.00;;;;;-146.37;100.00;59337.28;5078379;28;8777;-80
2023/01/13 01:06:12;;;;;;;;;0.00;0.00;;;;;-146.37;100.00;59337.28;5091794;28;8752;-80
2023/01/13 01:08:38;;;;;;;;;0.00;0.00;;;;;-146.37;100.00;59337.28;5058452;28;8778;-80
2023/01/13 01:11:10;;;;;;;;;0.00;0.00;;;;;-146.37;100.00;59337.28;5057809;28;9628;-80
2023/01/13 01:13:37;;;;;;;;;0.00;0.00;;;;;-146.37;100.00;59337.28;5076059;28;9188;-80
2023/01/13 01:16:08;;;;;;;;;1.00;0.00;;;;;-146.37;100.00;59337.28;5057977;28;8859;-79
2023/01/13 01:18:40;;;;;;;;;1.00;1.00;;;;;-146.37;100.00;59337.28;5058440;28;8789;-80
2023/01/13 01:21:06;;;;;;;;;0.00;0.00;;;;;-146.37;100.00;59337.28;5069768;28;8814;-80
2023/01/13 01:23:32;;;;;;;;;0.40;0.40;;;;;-146.37;100.00;59337.28;5098285;28;8876;-79
2023/01/13 01:26:06;;;;;;;;;0.00;0.00;;;;;-146.37;100.00;59337.28;5079868;28;8852;-79
2023/01/13 01:28:33;;;;;;;;;1.00;0.00;;;;;-146.37;100.00;59337.28;5097682;28;8781;-79
2023/01/13 01:30:59;;;;;;;;;0.80;0.80;;;;;-146.37;100.00;59337.28;5069002;28;8990;-79
2023/01/13 01:33:25;;;;;;;;;1.50;0.75;;;;;-146.37;100.00;59337.28;5060234;28;8813;-79
2023/01/13 01:35:52;;;;;;;;;0.20;0.20;;;;;-146.37;100.00;59337.28;5077701;28;8793;-80
2023/01/13 01:38:17;;;;;;;;;0.00;0.00;;;;;-146.37;100.00;59337.28;5075062;28;8793;-80
2023/01/13 01:40:44;;;;;;;;;0.00;0.00;;;;;-146.37;100.00;59337.28;5058919;28;9718;-80
2023/01/13 01:46:03;;;;;;;;;0.80;0.00;;;;;-146.37;100.00;59337.28;5077944;28;8753;-80
2023/01/13 01:48:32;;;;;;;;;0.00;0.00;;;;;-146.37;100.00;59337.28;5076525;28;8765;-80
2023/01/13 01:50:58;;;;;;;;;1.00;0.00;;;;;-146.37;100.00;59337.28;5080173;28;8803;-80
2023/01/13 01:53:27;;;;;;;;;0.20;0.00;;;;;-146.37;100.00;59337.28;5097794;28;8822;-79
2023/01/13 01:55:54;;;;;;;;;0.80;0.60;;;;;-146.37;100.00;59337.28;5078753;28;8845;-80
2023/01/13 01:58:34;;;;;;;;;0.00;0.00;;;;;-146.37;100.00;59337.28;5079587;28;8795;-79
2023/01/13 02:01:00;;;;;;;;;2.00;1.00;;;;;-146.37;100.00;59337.28;5098310;28;9806;-80
2023/01/13 02:03:25;;;;;;;;;0.25;0.25;;;;;-146.37;100.00;59337.28;5096906;28;8795;-80
2023/01/13 02:05:51;;;;;;;;;2.00;0.50;;;;;-146.37;100.00;59337.28;5078302;28;8799;-80
2023/01/13 02:08:17;;;;;;;;;2.00;0.00;;;;;-146.37;100.00;59337.28;5097104;28;8795;-80
2023/01/13 02:10:47;;;;;;;;;1.00;1.00;;;;;-146.37;100.00;59337.28;5097792;28;8881;-79
2023/01/13 02:13:13;;;;;;;;;0.00;0.00;;;;;-146.37;100.00;59337.28;5097358;28;8758;-80
2023/01/13 02:16:06;;;;;;;;;1.00;1.00;;;;;-146.37;100.00;59337.28;5096563;28;8798;-80
2023/01/13 02:19:17;;;;;;;;;0.00;0.00;;;;;-146.37;100.00;59337.28;5096887;28;8839;-80
2023/01/13 02:22:00;;;;;;;;;0.20;0.20;;;;;-146.37;100.00;59337.28;5078151;28;8723;-79
2023/01/13 02:27:33;;;;;;;;;0.00;0.00;;;;;-146.37;100.00;59337.28;5100209;28;8724;-80
2023/01/13 02:33:24;;;;;;;;;0.00;0.00;;;;;-146.37;100.00;59337.28;5095722;28;8802;-79
2023/01/13 02:35:55;;;;;;;;;1.00;1.00;;;;;-146.37;100.00;59337.28;5096051;28;8803;-79
2023/01/13 02:38:33;;;;;;;;;2.60;0.00;;;;;-146.37;100.00;59337.28;5096278;28;8783;-79
2023/01/13 02:44:05;;;;;;;;;2.00;0.00;;;;;-146.37;100.00;59337.28;5098824;28;8791;-80
2023/01/13 02:46:38;;;;;;;;;0.80;0.00;;;;;-146.37;100.00;59337.28;5078717;28;8774;-80
2023/01/13 02:49:09;;;;;;;;;0.20;0.20;;;;;-146.37;100.00;59337.28;5076969;28;8821;-80
2023/01/13 02:51:38;;;;;;;;;2.00;0.00;;;;;-146.37;100.00;59337.28;5095635;28;8786;-80
2023/01/13 02:54:21;;;;;;;;;4.00;1.00;;;;;-146.37;100.00;59337.28;5076872;28;8803;-80
2023/01/13 02:56:50;;;;;;;;;2.00;1.00;;;;;-146.37;100.00;59337.28;5076508;28;8770;-80
2023/01/13 02:59:16;;;;;;;;;1.20;1.20;;;;;-146.37;100.00;59337.28;5073658;28;8799;-80
2023/01/13 03:01:42;;;;;;;;;2.00;0.00;;;;;-146.37;100.00;59337.28;5076535;28;8771;-79
2023/01/13 03:04:42;;;;;;;;;2.00;0.50;;;;;-146.37;100.00;59337.28;5094708;28;9552;-79
2023/01/13 03:07:23;;;;;;;;;0.60;0.60;;;;;-146.37;100.00;59337.28;5095361;28;8774;-80
2023/01/13 03:10:10;;;;;;;;;2.60;0.00;;;;;-146.37;100.00;59337.28;5095197;28;8778;-80
2023/01/13 03:12:51;;;;;;;;;1.00;1.00;;;;;-146.37;100.00;59337.28;5076412;28;8933;-80
2023/01/13 03:15:39;;;;;;;;;0.40;0.00;;;;;-146.37;100.00;59337.28;5075736;28;8806;-81
2023/01/13 03:18:31;;;;;;;;;0.20;0.20;;;;;-146.37;100.00;59337.28;5012310;28;8788;-79
2023/01/13 03:21:34;;;;;;;;;1.00;0.00;;;;;-146.37;100.00;59337.28;5011746;28;8792;-80
2023/01/13 03:24:06;;;;;;;;;2.00;0.00;;;;;-146.37;100.00;59337.28;4952798;28;8806;-79
2023/01/13 03:26:35;;;;;;;;;0.00;0.00;;;;;-146.37;100.00;59337.28;4937704;28;8806;-79
2023/01/13 03:29:34;;;;;;;;;0.00;0.00;;;;;-146.37;100.00;59337.28;4937491;28;8940;-79
2023/01/13 03:32:15;;;;;;;;;0.00;0.00;;;;;-146.37;100.00;59337.28;4955265;28;8817;-80
2023/01/13 03:34:46;;;;;;;;;3.00;1.40;;;;;-146.37;100.00;59337.28;4955074;28;8794;-78
2023/01/13 03:37:15;;;;;;;;;1.00;0.00;;;;;-146.37;100.00;59337.28;4953916;28;8845;-79
2023/01/13 03:39:50;;;;;;;;;0.00;0.00;;;;;-146.37;100.00;59337.28;4954520;28;8751;-80
2023/01/13 03:42:22;;;;;;;;;2.00;0.80;;;;;-146.37;100.00;59337.28;4955845;28;8746;-81
2023/01/13 03:44:49;;;;;;;;;2.00;0.80;;;;;-146.37;100.00;59337.28;4938604;28;8810;-78
2023/01/13 03:47:33;;;;;;;;;1.00;1.00;;;;;-146.37;100.00;59337.28;4938472;28;8758;-80
2023/01/13 03:50:22;;;;;;;;;0.60;0.60;;;;;-146.37;100.00;59337.28;4955840;28;8770;-80
2023/01/13 03:52:52;;;;;;;;;0.40;0.40;;;;;-146.37;100.00;59337.28;4955362;28;8864;-79
2023/01/13 03:55:24;;;;;;;;;0.80;0.80;;;;;-146.37;100.00;59337.28;4969879;28;8732;-79
2023/01/13 03:57:58;;;;;;;;;1.20;1.20;;;;;-146.37;100.00;59337.28;5012532;28;8795;-79
2023/01/13 04:00:31;;;;;;;;;2.00;1.00;;;;;-146.37;100.00;59337.28;5027307;28;8787;-80
2023/01/13 04:03:09;;;;;;;;;1.60;0.00;;;;;-146.37;100.00;59337.28;5072849;28;8824;-79
2023/01/13 04:05:40;;;;;;;;;0.00;0.00;;;;;-146.37;100.00;59337.28;5055942;28;8785;-80
2023/01/13 04:08:25;;;;;;;;;1.80;0.00;;;;;-146.37;100.00;59337.28;5056526;28;9234;-79
2023/01/13 04:11:02;;;;;;;;;2.00;0.00;;;;;-146.37;100.00;59337.28;5074581;28;9706;-79
2023/01/13 04:13:32;;;;;;;;;1.80;0.80;;;;;-146.37;100.00;59337.28;5056596;28;8821;-80
2023/01/13 04:15:58;;;;;;;;;1.00;0.00;;;;;-146.37;100.00;59337.28;5075343;28;8833;-80
2023/01/13 04:18:26;;;;;;;;;0.00;0.00;;;;;-146.37;100.00;59337.28;5091847;28;8817;-80
2023/01/13 04:20:55;;;;;;;;;0.80;0.80;;;;;-146.37;100.00;59337.28;5057028;28;11419;-80
2023/01/13 04:23:21;;;;;;;;;0.00;0.00;;;;;-146.37;100.00;59337.28;5058029;28;8789;-80
2023/01/13 04:25:47;;;;;;;;;2.40;0.00;;;;;-146.37;100.00;59337.28;5074972;28;9753;-81
2023/01/13 04:28:14;;;;;;;;;1.00;0.00;;;;;-146.37;100.00;59337.28;5056613;28;8798;-79
2023/01/13 04:30:41;;;;;;;;;1.00;0.00;;;;;-146.37;100.00;59337.28;5092043;28;8738;-79
2023/01/13 04:33:07;;;;;;;;;1.20;0.60;;;;;-146.37;100.00;59337.28;5056121;28;8821;-79
2023/01/13 04:35:33;;;;;;;;;0.50;0.50;;;;;-146.37;100.00;59337.28;5056181;28;8823;-79
2023/01/13 04:38:01;;;;;;;;;1.20;0.80;;;;;-146.37;100.00;59337.28;5058486;28;8777;-80
2023/01/13 04:40:27;;;;;;;;;1.00;1.00;;;;;-146.37;100.00;59337.28;5075273;28;8734;-80
2023/01/13 04:42:52;;;;;;;;;0.50;0.00;;;;;-146.37;100.00;59337.28;5057280;28;8817;-78
2023/01/13 04:45:17;;;;;;;;;0.00;0.00;;;;;-146.37;100.00;59337.28;5074327;28;8894;-78
2023/01/13 04:47:43;;;;;;;;;0.50;0.00;;;;;-146.37;100.00;59337.28;5091711;28;8912;-79
2023/01/13 04:50:09;;;;;;;;;0.75;0.75;;;;;-146.37;100.00;59337.28;5056165;28;8832;-79
2023/01/13 04:52:41;;;;;;;;;2.00;0.80;;;;;-146.37;100.00;59337.28;5069012;28;8839;-79
2023/01/13 04:55:07;;;;;;;;;1.00;1.00;;;;;-146.37;100.00;59337.28;5074781;28;8781;-80
2023/01/13 04:57:33;;;;;;;;;1.00;1.00;;;;;-146.37;100.00;59337.28;5073872;28;8789;-81
2023/01/13 05:00:00;;;;;;;;;0.00;0.00;;;;;-146.37;100.00;59337.28;5073455;28;8793;-79
2023/01/13 05:02:27;;;;;;;;;0.60;0.60;;;;;-146.37;100.00;59337.28;5073198;28;9594;-77
2023/01/13 05:04:52;;;;;;;;;0.60;0.60;;;;;-146.37;100.00;59337.28;5071686;28;9710;-79
2023/01/13 05:07:18;;;;;;;;;1.00;1.00;;;;;-146.37;100.00;59337.28;5090064;28;8869;-80
2023/01/13 05:09:43;;;;;;;;;0.00;0.00;;;;;-146.37;100.00;59337.28;5077736;28;8846;-80
2023/01/13 05:17:38;;;;;;;;;0.00;0.00;;;;;-146.37;100.00;59337.28;5075939;28;8788;-80
2023/01/13 05:20:05;;;;;;;;;0.25;0.25;;;;;-146.37;100.00;59337.28;5077230;28;8776;-80
2023/01/13 05:25:21;;;;;;;;;0.25;0.25;;;;;-146.37;100.00;59337.28;5078640;28;8784;-80
2023/01/13 05:27:57;;;;;;;;;0.75;0.00;;;;;-146.37;100.00;59337.28;5077196;28;8927;-80
2023/01/13 05:30:26;;;;;;;;;1.50;0.00;;;;;-146.37;100.00;59337.28;5061409;28;8780;-80
2023/01/13 05:32:52;;;;;;;;;0.25;0.25;;;;;-146.37;100.00;59337.28;5076749;28;8748;-79
2023/01/13 05:35:17;;;;;;;;;1.00;0.33;;;;;-146.37;100.00;59337.28;5076581;28;8843;-78
2023/01/13 05:37:44;;;;;;;;;0.00;0.00;;;;;-146.37;100.00;59337.28;5075491;28;8800;-80
2023/01/13 05:43:25;;;;;;;;;2.50;1.00;;;;;-146.37;100.00;59337.28;5075457;28;8733;-79
2023/01/13 05:46:00;;;;;;;;;0.20;0.00;;;;;-146.37;100.00;59337.28;5074166;28;8733;-79
2023/01/13 05:48:28;;;;;;;;;0.25;0.25;;;;;-146.37;100.00;59337.28;5075372;28;8733;-79
2023/01/13 05:50:54;;;;;;;;;3.00;1.50;;;;;-146.37;100.00;59337.28;5075993;28;8854;-79
2023/01/13 05:53:21;;;;;;;;;1.00;0.00;;;;;-146.37;100.00;59337.28;5074846;28;8801;-80
2023/01/13 05:55:46;;;;;;;;;1.00;1.00;;;;;-146.37;100.00;59337.28;5076071;28;8891;-80
2023/01/13 05:58:15;;;;;;;;;0.00;0.00;;;;;-146.37;100.00;59337.28;5077163;28;8800;-79
2023/01/13 06:00:41;;;;;;;;;0.40;0.40;;;;;-146.37;100.00;59337.28;5075989;28;9250;-80
2023/01/13 06:03:07;;;;;;;;;2.00;0.00;;;;;-146.37;100.00;59337.28;5076181;28;8815;-80
2023/01/13 06:05:33;;;;;;;;;1.00;1.00;;;;;-146.37;100.00;59337.28;5075268;28;9539;-80
2023/01/13 06:08:00;;;;;;;;;2.60;1.00;;;;;-146.37;100.00;59337.28;5079372;28;8780;-80
2023/01/13 06:10:26;;;;;;;;;0.00;0.00;;;;;-146.37;100.00;59337.28;5077036;28;8772;-79
2023/01/13 06:12:52;;;;;;;;;1.40;1.40;;;;;-146.37;100.00;59337.28;5080962;28;8897;-80
2023/01/13 06:15:17;;;;;;;;;2.00;1.00;;;;;-146.37;100.00;59337.28;5080890;28;8804;-79
2023/01/13 06:17:43;;;;;;;;;1.00;1.00;;;;;-146.37;100.00;59337.28;5077198;28;8792;-79
2023/01/13 06:20:10;;;;;;;;;0.75;0.25;;;;;-146.37;100.00;59337.28;5079044;28;8831;-79
2023/01/13 06:22:38;;;;;;;;;1.20;1.20;;;;;-146.37;100.00;59337.28;5075817;28;8796;-79
2023/01/13 06:25:12;;;;;;;;;0.20;0.20;;;;;-146.37;100.00;59337.28;5076772;28;8883;-79
2023/01/13 06:27:39;;;;;;;;;2.40;1.00;;;;;-146.37;100.00;59337.28;5075412;28;8795;-79
2023/01/13 06:30:04;;;;;;;;;0.60;0.60;;;;;-146.37;100.00;59337.28;5075565;28;8985;-79
2023/01/13 06:32:40;;;;;;;;;1.00;1.00;;;;;-146.37;100.00;59337.28;5077278;28;8924;-79
2023/01/13 06:38:31;;;;;;;;;0.00;0.00;;;;;-146.37;100.00;59337.28;5077905;28;8713;-79
2023/01/13 06:40:56;;;;;;;;;3.25;1.75;;;;;-146.37;100.00;59337.28;5076538;28;8804;-79
2023/01/13 06:43:22;;;;;;;;;1.00;1.00;;;;;-146.37;100.00;59337.28;5075907;28;8812;-80
2023/01/13 06:45:54;;;;;;;;;3.00;2.00;;;;;-146.37;100.00;59337.28;5075734;28;8823;-80
2023/01/13 06:48:26;;;;;;;;;3.00;0.75;;;;;-146.37;100.00;59337.28;5075972;28;8717;-79
2023/01/13 06:50:52;;;;;;;;;2.00;1.50;;;;;-146.37;100.00;59337.28;5076515;28;8799;-79
2023/01/13 06:53:18;;;;;;;;;1.00;1.00;;;;;-146.37;100.00;59337.28;5074358;28;8831;-79
2023/01/13 06:55:43;;;;;;;;;1.25;1.25;;;;;-146.37;100.00;59337.28;5077560;28;8796;-79
2023/01/13 06:58:08;;;;;;;;;2.25;2.25;;;;;-146.37;100.00;59337.28;5074895;28;8831;-79
2023/01/13 07:00:36;;;;;;;;;0.00;0.00;;;;;-146.37;100.00;59337.28;5076849;28;8832;-80
2023/01/13 07:03:13;;;;;;;;;2.50;0.25;;;;;-146.37;100.00;59337.28;5075434;28;9567;-79
2023/01/13 07:05:40;;;;;;;;;5.00;2.00;;;;;-146.37;100.00;59337.28;5070631;28;10048;-78
2023/01/13 07:08:07;;;;;;;;;1.00;1.00;;;;;-146.37;100.00;59337.28;5065484;28;8930;-79
2023/01/13 07:10:34;;;;;;;;;1.00;1.00;;;;;-146.37;100.00;59337.28;5078226;28;8789;-79
2023/01/13 07:16:04;;;;;;;;;1.00;1.00;;;;;-146.37;100.00;59337.28;5079531;28;8796;-80
2023/01/13 07:18:31;;;;;;;;;1.40;1.40;;;;;-146.37;100.00;59337.28;5061178;28;8857;-80
2023/01/13 07:20:59;;;;;;;;;2.00;1.25;;;;;-146.37;100.00;59337.28;5077046;28;9570;-80
2023/01/13 07:23:28;;;;;;;;;1.00;1.00;;;;;-146.37;100.00;59337.28;5077478;28;8815;-80
2023/01/13 07:25:57;;;;;;;;;0.20;0.20;;;;;-146.37;100.00;59337.28;5078057;28;8834;-79
2023/01/13 07:28:24;;;;;;;;;2.20;2.00;;;;;-146.37;100.00;59337.28;5078130;28;9589;-78
2023/01/13 07:30:50;;;;;;;;;1.40;0.20;;;;;-146.37;100.00;59337.28;5079757;28;8784;-80
2023/01/13 07:33:17;;;;;;;;;3.00;1.00;;;;;-146.37;100.00;59337.28;5079970;28;8831;-80
2023/01/13 07:35:43;;;;;;;;;3.25;1.00;;;;;-146.37;100.00;59337.28;5078795;28;8862;-79
2023/01/13 07:38:10;;;;;;;;;2.20;2.20;;;;;-146.37;100.00;59337.28;5081205;28;8796;-77
2023/01/13 07:40:36;;;;;;;;;5.00;4.75;;;;;-146.37;100.00;59337.28;5077335;28;8773;-79
2023/01/13 07:45:46;;;;;;;;;11.00;8.25;;;;;-146.37;100.00;59337.28;5076026;28;8717;-80
2023/01/13 07:48:12;;;;;;;;;2.67;2.00;;;;;-146.37;100.00;59337.28;5076822;28;8823;-80
2023/01/13 07:50:37;;;;;;;;;7.00;3.67;;;;;-146.37;100.00;59337.28;5077189;28;8796;-79
2023/01/13 07:53:03;;;;;;;;;3.00;3.00;;;;;-146.37;100.00;59337.28;5079805;28;8828;-81
2023/01/13 07:59:31;;;;;;;;;1.50;1.00;;;;;-146.37;100.00;59337.28;5081403;28;8813;-79
2023/01/13 08:01:56;;;;;;;;;1.40;1.40;;;;;-146.37;100.00;59337.28;5059712;28;8784;-82
2023/01/13 08:04:41;;;;;;;;;3.00;3.00;;;;;-146.37;100.00;59337.28;5059561;28;8894;-86
2023/01/13 08:07:07;;;;;;;;;4.75;4.00;;;;;-146.37;100.00;59337.28;5058424;28;8759;-81
2023/01/13 08:09:33;;;;;;;;;7.00;3.50;;;;;-146.37;100.00;59337.28;5042781;28;8724;-80
2023/01/13 08:15:04;;;;;;;;;1.60;1.20;;;;;-146.37;100.00;59337.28;5062619;28;8791;-81
2023/01/13 08:17:29;;;;;;;;;37.00;33.00;;;;;-146.37;100.00;59337.28;5014659;28;8812;-81
2023/01/13 08:19:55;;;;;;;;;2.50;2.50;;;;;-146.37;100.00;59337.28;5003545;28;8812;-81
2023/01/13 08:22:22;;;;;;;;;7.33;6.00;;;;;-146.37;100.00;59337.28;5019456;28;8768;-79
2023/01/13 08:24:48;;;;;;;;;1.80;1.00;;;;;-146.37;100.00;59337.28;5002226;28;8816;-80
2023/01/13 08:27:14;;;;;;;;;2.40;1.40;;;;;-146.37;100.00;59337.28;5027840;28;8823;-84
2023/01/13 08:43:35;;;;;;;;;3.40;3.00;;;;;-146.37;100.00;59337.28;5122360;28;8785;-82
2023/01/13 08:46:03;;;;;;;;;2.00;2.00;;;;;-146.37;100.00;59337.28;5104497;28;8890;-82
2023/01/13 08:48:29;;;;;;;;;3.80;2.20;;;;;-146.37;100.00;59337.28;5119278;28;8799;-82
2023/01/13 08:51:11;;;;;;;;;2.00;2.00;;;;;-146.37;100.00;59337.28;5100838;28;8758;-81
2023/01/13 08:53:37;;;;;;;;;1.20;0.80;;;;;-146.37;100.00;59337.28;5123819;28;8830;-82
2023/01/13 08:56:20;;;;;;;;;;;;;;;;;;;;;
2023/01/13 09:09:25;;;;;;;;;4.00;4.00;;;;;-146.37;100.00;59337.28;5047828;28;8762;-82
2023/01/13 09:14:47;;;;;;;;;2.80;2.80;;;;;-146.37;100.00;59337.28;5059795;28;8895;-81
2023/01/13 09:17:13;;;;;;;;;2.20;2.20;;;;;-146.37;100.00;59337.28;5066200;28;8745;-80
2023/01/13 09:19:39;;;;;;;;;3.60;1.80;;;;;-146.37;100.00;59337.28;5063234;28;9657;-81
2023/01/13 09:22:06;;;;;;;;;11.33;8.67;;;;;-146.37;100.00;59337.28;5065206;28;8789;-79
2023/01/13 09:24:36;;;;;;;;;19.25;18.25;;;;;-146.37;100.00;59337.28;5046003;28;8745;-80
2023/01/13 09:27:01;;;;;;;;;11.75;11.00;;;;;-146.37;100.00;59337.28;5061630;28;8819;-80
2023/01/13 09:29:27;;;;;;;;;9.75;4.75;;;;;-146.37;100.00;59337.28;5062458;28;8811;-80
2023/01/13 09:31:52;;;;;;;;;1.25;1.25;;;;;-146.37;100.00;59337.28;5061790;28;8862;-81
2023/01/13 09:37:06;;;;;;;;;3.60;3.40;;;;;-146.37;100.00;59337.28;5067419;28;8799;-82
2023/01/13 09:39:33;;;;;;;;;4.20;3.40;;;;;-146.37;100.00;59337.28;5078435;28;8889;-81
2023/01/13 09:45:01;;;;;;;;;5.25;5.25;;;;;-146.37;100.00;59337.28;5059755;28;8744;-80
2023/01/13 09:47:31;;;;;;;;;2.40;2.20;;;;;-146.37;100.00;59337.28;5101970;28;8810;-81
2023/01/13 09:50:12;;;;;;;;;2.20;2.20;;;;;-146.37;100.00;59337.28;5084145;28;8881;-79
2023/01/13 09:52:39;;;;;;;;;3.40;3.40;;;;;-146.37;100.00;59337.28;5103120;28;8831;-81
2023/01/13 09:55:13;;;;;;;;;2.60;2.60;;;;;-146.37;100.00;59337.28;5103510;28;8811;-80
2023/01/13 09:57:38;;;;;;;;;3.60;3.60;;;;;-146.37;100.00;59337.28;5077459;28;8808;-81
2023/01/13 10:00:16;;;;;;;;;3.00;2.67;;;;;-146.37;100.00;59337.28;5111144;28;8837;-81
2023/01/13 10:03:23;;;;;;;;;6.00;3.75;;;;;-146.37;100.00;59337.28;5079259;28;8763;-81
2023/01/13 10:06:09;;;;;;;;;3.50;3.50;;;;;-146.37;100.00;59337.28;5103183;28;8739;-82
2023/01/13 10:08:43;;;;;;;;;3.80;2.60;;;;;-146.37;100.00;59337.28;5103766;28;8750;-82
2023/01/13 10:14:27;;;;;;;;;3.25;2.50;;;;;-146.37;100.00;59337.28;5102359;28;9571;-79
2023/01/13 10:17:21;;;;;;;;;3.75;2.00;;;;;-146.37;100.00;59337.28;5083519;28;8826;-79
2023/01/13 10:20:19;;;;;;;;;2.75;2.00;;;;;-146.37;100.00;59337.28;5109123;28;8797;-79
2023/01/13 10:23:04;;;;;;;;;2.00;2.00;;;;;-146.37;100.00;59337.28;5108367;28;8806;-80
2023/01/13 10:25:44;;;;;;;;;2.75;2.75;;;;;-146.37;100.00;59337.28;5105435;28;8770;-81
2023/01/13 10:28:18;;;;;;;;;2.80;2.80;;;;;-146.37;100.00;59337.28;5108041;28;9670;-80
2023/01/13 10:30:52;;;;;;;;;3.00;3.00;;;;;-146.37;100.00;59337.28;5090697;28;8836;-81
2023/01/13 10:33:32;;;;;;;;;0.25;0.25;;;;;-146.37;100.00;59337.28;5090708;28;8795;-81
2023/01/13 10:36:21;;;;;;;;;2.50;2.00;;;;;-146.37;100.00;59337.28;5084657;28;9642;-81
2023/01/13 10:38:51;;;;;;;;;1.00;1.00;;;;;-146.37;100.00;59337.28;5085663;28;8748;-80
2023/01/13 10:41:31;;;;;;;;;3.25;3.00;;;;;-146.37;100.00;59337.28;5097972;28;8799;-79
2023/01/13 10:44:19;;;;;;;;;0.80;0.00;;;;;-146.37;100.00;59337.28;5104453;28;8783;-79
2023/01/13 10:47:08;;;;;;;;;3.40;2.80;;;;;-146.37;100.00;59337.28;5104608;28;8759;-79
2023/01/13 10:49:36;;;;;;;;;3.20;3.00;;;;;-146.37;100.00;59337.28;5104231;28;8787;-81
2023/01/13 10:52:25;;;;;;;;;3.60;3.00;;;;;-146.37;100.00;59337.28;5101843;28;8831;-79
2023/01/13 10:54:55;;;;;;;;;2.00;1.25;;;;;-146.37;100.00;59337.28;5086853;28;8767;-80
2023/01/13 10:57:34;;;;;;;;;0.80;0.80;;;;;-146.37;100.00;59337.28;5106282;28;8790;-82
2023/01/13 11:00:27;;;;;;;;;1.60;1.60;;;;;-146.37;100.00;59337.28;5089548;28;8889;-82
2023/01/13 11:03:24;;;;;;;;;2.00;2.00;;;;;-146.37;100.00;59337.28;5089138;28;8777;-83
2023/01/13 11:06:01;;;;;;;;;3.80;1.80;;;;;-146.37;100.00;59337.28;5088040;28;8743;-83
2023/01/13 11:08:56;;;;;;;;;3.00;1.00;;;;;-146.37;100.00;59337.28;5088275;28;8908;-83
2023/01/13 11:11:54;;;;;;;;;4.40;2.80;;;;;-146.37;100.00;59337.28;5095913;28;8752;-84
2023/01/13 11:14:43;;;;;;;;;2.00;1.00;;;;;-146.37;100.00;59337.28;5085428;28;8793;-82
2023/01/13 11:17:30;;;;;;;;;4.25;4.00;;;;;-146.37;100.00;59337.28;5068647;28;8848;-82
2023/01/13 11:20:28;;;;;;;;;3.00;3.00;;;;;-146.37;100.00;59337.28;5087540;28;8786;-79
2023/01/13 11:23:21;;;;;;;;;4.00;3.40;;;;;-146.37;100.00;59337.28;5085419;28;8738;-83
2023/01/13 11:26:26;;;;;;;;;9.50;6.75;;;;;-146.37;100.00;59337.28;5084471;28;8738;-81
2023/01/13 11:29:04;;;;;;;;;1.80;1.00;;;;;-146.37;100.00;59337.28;5078553;28;8817;-82
2023/01/13 11:31:41;;;;;;;;;2.80;2.80;;;;;-146.37;100.00;59337.28;5103121;28;8763;-82
2023/01/13 11:34:33;;;;;;;;;3.40;1.20;;;;;-146.37;100.00;59337.28;5084269;28;8971;-81
2023/01/13 11:40:37;;;;;;;;;3.80;2.40;;;;;-146.37;100.00;59337.28;5086120;28;8726;-83
2023/01/13 11:43:26;;;;;;;;;48.50;34.00;;;;;-146.37;100.00;59337.28;5098085;28;8833;-84
2023/01/13 11:46:14;;;;;;;;;2.60;1.60;;;;;-146.37;100.00;59337.28;5088844;28;8739;-84
2023/01/13 11:49:16;;;;;;;;;2.40;2.00;;;;;-146.37;100.00;59337.28;5069693;28;8823;-83
2023/01/13 11:55:38;;;;;;;;;11.50;11.50;;;;;-146.37;100.00;59337.28;5091289;28;9087;-83
2023/01/13 11:58:25;;;;;;;;;1.20;1.20;;;;;-146.37;100.00;59337.28;5075821;28;9725;-83
2023/01/13 12:01:35;;;;;;;;;13.25;10.25;;;;;-146.37;100.00;59337.28;5098614;28;8810;-84
2023/01/13 12:04:04;;;;;;;;;3.75;3.00;;;;;-146.37;100.00;59337.28;5078288;28;9237;-84
2023/01/13 12:06:38;;;;;;;;;12.75;8.25;;;;;-146.37;100.00;59337.28;5089381;28;8736;-84
2023/01/13 12:09:44;;;;;;;;;4.75;4.25;;;;;-146.37;100.00;59337.28;5082600;28;8751;-83
2023/01/13 12:12:31;;;;;;;;;11.75;11.25;;;;;-146.37;100.00;59337.28;5103647;28;8806;-82
2023/01/13 12:15:22;;;;;;;;;4.25;3.50;;;;;-146.37;100.00;59337.28;5094500;28;8820;-83
2023/01/13 12:17:53;;;;;;;;;2.00;2.00;;;;;-146.37;100.00;59337.28;5096747;28;8908;-82
2023/01/13 12:20:58;;;;;;;;;3.60;3.60;;;;;-146.37;100.00;59337.28;5103797;28;8826;-81
2023/01/13 12:23:49;;;;;;;;;3.60;2.00;;;;;-146.37;100.00;59337.28;5109472;28;8751;-83
2023/01/13 12:26:16;;;;;;;;;2.40;2.00;;;;;-146.37;100.00;59337.28;5072240;28;9276;-82
2023/01/13 12:29:12;;;;;;;;;2.40;2.40;;;;;-146.37;100.00;59337.28;5085505;28;8787;-83
2023/01/13 12:32:24;;;;;;;;;2.20;2.00;;;;;-146.37;100.00;59337.28;5086717;28;8729;-82
2023/01/13 12:35:31;;;;;;;;;2.80;1.00;;;;;-146.37;100.00;59337.28;5065913;28;8785;-82
2023/01/13 12:38:46;;;;;;;;;4.00;4.00;;;;;-146.37;100.00;59337.28;5009566;28;8738;-80
2023/01/13 12:44:29;;;;;;;;;3.80;2.80;;;;;-146.37;100.00;59337.28;5051489;28;8925;-82
2023/01/13 12:47:00;;;;;;;;;2.20;2.00;;;;;-146.37;100.00;59337.28;5070921;28;8766;-83
2023/01/13 12:49:32;;;;;;;;;1.20;1.20;;;;;-146.37;100.00;59337.28;5050324;28;8816;-84
2023/01/13 12:52:37;;;;;;;;;;;;;;;;;;;;;
2023/01/13 12:55:47;;;;;;;;;2.00;2.00;;;;;-146.37;100.00;59337.28;5070050;28;36204;-85
2023/01/13 12:58:30;;;;;;;;;2.20;2.20;;;;;-146.37;100.00;59337.28;4986830;28;8769;-83
2023/01/13 13:01:13;;;;;;;;;4.00;3.00;;;;;-146.37;100.00;59337.28;4985368;28;8804;-82
2023/01/13 13:04:09;;;;;;;;;3.00;3.00;;;;;-146.37;100.00;59337.28;4985200;28;8805;-82
2023/01/13 13:06:45;;;;;;;;;3.25;3.25;;;;;-146.37;100.00;59337.28;4969413;28;8789;-82
2023/01/13 13:09:59;;;;;;;;;2.00;2.00;;;;;-146.37;100.00;59337.28;4986384;28;8782;-83
2023/01/13 13:15:24;;;;;;;;;3.60;2.20;;;;;-146.37;100.00;59337.28;4979388;28;8756;-82
2023/01/13 13:18:23;;;;;;;;;4.00;2.50;;;;;-146.37;100.00;59337.28;4969920;28;8746;-82
2023/01/13 13:21:09;;;;;;;;;8.00;6.00;;;;;-146.37;100.00;59337.28;4972359;28;8851;-83